Terminal Aerodrome Forecast
Issued by NWS

Home | Current Version | Previous Version | Text Only | Print | Product List | Glossary On
Versions: 1 2 3 4 5 6 7 8 9 10 11 12 13 14
716
FTUS45 KABQ 221735
TAFFMN
TAF
KFMN 221735Z 2218/2318 10006KT P6SM BKN150
     FM222000 25015G23KT P6SM FEW090 BKN150
     FM230200 22011G18KT P6SM SCT150
     FM230900 26013G22KT P6SM BKN060
     FM231500 26020G30KT P6SM SCT070=

USA.gov is the U.S. government's official web portal to all federal, state and local government web resources and services.